Aérodrome :







RETROUVEZ-NOUS SUR...

 
LOGIN :

S'inscrire | Disclaimer

   EN    FR    IT 

 









Légende :    VFR   VFR Marginal   IFR   IFR Intensif   IFR Très Intensif
Visi : 
Plafond : 
>= 8 km
>= 3000ft
5 à 8 km
1000 à 3000 ft
1500m à 5 km
500 à 1000 ft
800 à 1500m
200 à 500 ft
< 800m
< 200 ft
Symboles :   Orages  Brouillard  Fortes neiges  Fortes précipitations  Vent > 20 kt






- Altitude de l'aérodrome : 234 ft
- Code IATA : PBG


KPBG - Plattsburgh International

DERNIER METAR :
  • 191753Z AUTO 06007KT 10SM FEW043 11/01 A3004 RMK AO2 SLP174 T01110011 10111 20044 58010

METARs EXPIRÉS :
  • 191653Z AUTO VRB03KT 10SM SCT042 10/00 A3005 RMK AO2 SLP178 T01000000
  • 191553Z AUTO 34006KT 10SM CLR 09/M01 A3006 RMK AO2 SLP181 T00891006

TAF KPBG
Valide du 19 à 18h jusqu'au 20 à 18h UTC


191720Z 1918/2018 33008KT P6SM FEW050
FM201400 12006KT P6SM SCT200



MET'MAP, la Météo Aéronautique d'un coup d'oeil ! - Copyright ORBIFLY Décembre 2007 - Disclaimer

ORBIFLY MET'MAP TEAM :

Programmation & Développement : Alexandra Zaïnal
Conception & Développement : Baudouin d'Aumeries
Co-Programmation & Développement : Marc-Olivier Méhu
Soutien technique & logistique : Manuel Goepfert

Contact : metmap@orbifly.com




SOURCES & CREDITS :

   NOAA